sensor_id;sensor_type;location;lat;lon;timestamp;temperature;humidity
13682;DHT22;6913;49.892;7.936;2022-07-01T00:00:12;16.10;99.90
13682;DHT22;6913;49.892;7.936;2022-07-01T00:02:40;16.10;99.90
13682;DHT22;6913;49.892;7.936;2022-07-01T00:05:07;16.10;99.90
13682;DHT22;6913;49.892;7.936;2022-07-01T00:07:34;16.10;99.90
13682;DHT22;6913;49.892;7.936;2022-07-01T00:10:01;16.20;99.90
13682;DHT22;6913;49.892;7.936;2022-07-01T00:12:28;16.20;99.90
13682;DHT22;6913;49.892;7.936;2022-07-01T00:14:55;16.20;99.90
13682;DHT22;6913;49.892;7.936;2022-07-01T00:17:22;16.40;99.90
13682;DHT22;6913;49.892;7.936;2022-07-01T00:19:50;16.70;99.90
13682;DHT22;6913;49.892;7.936;2022-07-01T00:22:17;16.60;99.90
13682;DHT22;6913;49.892;7.936;2022-07-01T00:24:44;16.70;99.90
13682;DHT22;6913;49.892;7.936;2022-07-01T00:27:11;16.60;99.90
13682;DHT22;6913;49.892;7.936;2022-07-01T00:29:39;16.50;99.90
13682;DHT22;6913;49.892;7.936;2022-07-01T00:32:06;16.40;99.90
13682;DHT22;6913;49.892;7.936;2022-07-01T00:34:34;16.30;99.90
13682;DHT22;6913;49.892;7.936;2022-07-01T00:37:03;16.30;99.90
13682;DHT22;6913;49.892;7.936;2022-07-01T00:39:30;16.30;99.90
13682;DHT22;6913;49.892;7.936;2022-07-01T00:41:59;16.40;99.90
13682;DHT22;6913;49.892;7.936;2022-07-01T00:44:27;16.60;99.90
13682;DHT22;6913;49.892;7.936;2022-07-01T00:46:54;17.00;99.90
13682;DHT22;6913;49.892;7.936;2022-07-01T00:49:21;16.60;99.90
13682;DHT22;6913;49.892;7.936;2022-07-01T00:51:48;16.30;99.90
13682;DHT22;6913;49.892;7.936;2022-07-01T00:54:17;16.50;99.90
13682;DHT22;6913;49.892;7.936;2022-07-01T00:56:44;16.30;99.90
13682;DHT22;6913;49.892;7.936;2022-07-01T00:59:11;16.50;99.90
13682;DHT22;6913;49.892;7.936;2022-07-01T01:01:38;16.60;99.90
13682;DHT22;6913;49.892;7.936;2022-07-01T01:04:04;16.30;99.90
13682;DHT22;6913;49.892;7.936;2022-07-01T01:06:31;16.30;99.90
13682;DHT22;6913;49.892;7.936;2022-07-01T01:09:00;16.30;99.90
13682;DHT22;6913;49.892;7.936;2022-07-01T01:11:28;16.30;99.90
13682;DHT22;6913;49.892;7.936;2022-07-01T01:13:55;15.90;99.90
13682;DHT22;6913;49.892;7.936;2022-07-01T01:16:23;16.00;99.90
13682;DHT22;6913;49.892;7.936;2022-07-01T01:18:51;16.00;99.90
13682;DHT22;6913;49.892;7.936;2022-07-01T01:21:20;16.00;99.90
13682;DHT22;6913;49.892;7.936;2022-07-01T01:23:47;16.00;99.90
13682;DHT22;6913;49.892;7.936;2022-07-01T01:26:18;16.20;99.90
13682;DHT22;6913;49.892;7.936;2022-07-01T01:28:46;16.60;99.90
13682;DHT22;6913;49.892;7.936;2022-07-01T01:31:13;16.40;99.90
13682;DHT22;6913;49.892;7.936;2022-07-01T01:33:40;16.50;99.90
13682;DHT22;6913;49.892;7.936;2022-07-01T01:36:07;16.00;99.90
13682;DHT22;6913;49.892;7.936;2022-07-01T01:38:36;16.40;99.90
13682;DHT22;6913;49.892;7.936;2022-07-01T01:41:03;16.00;99.90
13682;DHT22;6913;49.892;7.936;2022-07-01T01:43:30;16.10;99.90
13682;DHT22;6913;49.892;7.936;2022-07-01T01:46:00;16.20;99.90
13682;DHT22;6913;49.892;7.936;2022-07-01T01:48:27;16.30;99.90
13682;DHT22;6913;49.892;7.936;2022-07-01T01:50:54;16.50;99.90
13682;DHT22;6913;49.892;7.936;2022-07-01T01:53:21;16.60;99.90
13682;DHT22;6913;49.892;7.936;2022-07-01T01:55:49;16.70;99.90
13682;DHT22;6913;49.892;7.936;2022-07-01T01:58:16;16.60;99.90
13682;DHT22;6913;49.892;7.936;2022-07-01T02:00:43;16.70;99.90
13682;DHT22;6913;49.892;7.936;2022-07-01T02:03:10;16.60;99.90
13682;DHT22;6913;49.892;7.936;2022-07-01T02:05:37;16.40;99.90
13682;DHT22;6913;49.892;7.936;2022-07-01T02:08:04;16.50;99.90
13682;DHT22;6913;49.892;7.936;2022-07-01T02:10:31;16.50;99.90
13682;DHT22;6913;49.892;7.936;2022-07-01T02:12:59;16.70;99.90
13682;DHT22;6913;49.892;7.936;2022-07-01T02:15:26;16.20;99.90
13682;DHT22;6913;49.892;7.936;2022-07-01T02:17:53;15.90;99.90
13682;DHT22;6913;49.892;7.936;2022-07-01T02:20:22;16.20;99.90
13682;DHT22;6913;49.892;7.936;2022-07-01T02:22:49;16.00;99.90
13682;DHT22;6913;49.892;7.936;2022-07-01T02:25:17;16.00;99.90
13682;DHT22;6913;49.892;7.936;2022-07-01T02:27:45;15.90;99.90
13682;DHT22;6913;49.892;7.936;2022-07-01T02:30:13;15.80;99.90
13682;DHT22;6913;49.892;7.936;2022-07-01T02:32:40;16.10;99.90
13682;DHT22;6913;49.892;7.936;2022-07-01T02:35:08;16.50;99.90
13682;DHT22;6913;49.892;7.936;2022-07-01T02:37:36;15.70;99.90
13682;DHT22;6913;49.892;7.936;2022-07-01T02:40:04;15.70;99.90
13682;DHT22;6913;49.892;7.936;2022-07-01T02:42:31;15.70;99.90
13682;DHT22;6913;49.892;7.936;2022-07-01T02:45:01;15.70;99.90
13682;DHT22;6913;49.892;7.936;2022-07-01T02:47:35;15.70;99.90
13682;DHT22;6913;49.892;7.936;2022-07-01T02:50:02;16.10;99.90
13682;DHT22;6913;49.892;7.936;2022-07-01T02:52:29;15.70;99.90
13682;DHT22;6913;49.892;7.936;2022-07-01T02:54:56;15.90;99.90
13682;DHT22;6913;49.892;7.936;2022-07-01T02:57:23;15.80;99.90
13682;DHT22;6913;49.892;7.936;2022-07-01T02:59:50;15.70;99.90
13682;DHT22;6913;49.892;7.936;2022-07-01T03:02:17;15.70;99.90
13682;DHT22;6913;49.892;7.936;2022-07-01T03:04:46;15.60;99.90
13682;DHT22;6913;49.892;7.936;2022-07-01T03:07:13;15.40;99.90
13682;DHT22;6913;49.892;7.936;2022-07-01T03:09:40;15.80;99.90
13682;DHT22;6913;49.892;7.936;2022-07-01T03:12:09;15.60;99.90
13682;DHT22;6913;49.892;7.936;2022-07-01T03:14:53;15.50;99.90
13682;DHT22;6913;49.892;7.936;2022-07-01T03:17:20;15.60;99.90
13682;DHT22;6913;49.892;7.936;2022-07-01T03:19:49;15.60;99.90
13682;DHT22;6913;49.892;7.936;2022-07-01T03:22:18;15.40;99.90
13682;DHT22;6913;49.892;7.936;2022-07-01T03:24:46;15.50;99.90
13682;DHT22;6913;49.892;7.936;2022-07-01T03:27:13;15.40;99.90
13682;DHT22;6913;49.892;7.936;2022-07-01T03:29:40;15.80;99.90
13682;DHT22;6913;49.892;7.936;2022-07-01T03:32:07;15.40;99.90
13682;DHT22;6913;49.892;7.936;2022-07-01T03:34:35;15.40;99.90
13682;DHT22;6913;49.892;7.936;2022-07-01T03:37:04;15.40;99.90
13682;DHT22;6913;49.892;7.936;2022-07-01T03:39:31;15.30;99.90
13682;DHT22;6913;49.892;7.936;2022-07-01T03:41:58;15.40;99.90
13682;DHT22;6913;49.892;7.936;2022-07-01T03:44:25;15.40;99.90
13682;DHT22;6913;49.892;7.936;2022-07-01T03:46:52;15.30;99.90
13682;DHT22;6913;49.892;7.936;2022-07-01T03:49:19;15.70;99.90
13682;DHT22;6913;49.892;7.936;2022-07-01T03:51:46;15.60;99.90
13682;DHT22;6913;49.892;7.936;2022-07-01T03:54:14;15.40;99.90
13682;DHT22;6913;49.892;7.936;2022-07-01T03:56:55;15.40;99.90
13682;DHT22;6913;49.892;7.936;2022-07-01T03:59:22;15.60;99.90
13682;DHT22;6913;49.892;7.936;2022-07-01T04:01:49;15.30;99.90
13682;DHT22;6913;49.892;7.936;2022-07-01T04:04:16;15.30;99.90
13682;DHT22;6913;49.892;7.936;2022-07-01T04:06:43;15.40;99.90
13682;DHT22;6913;49.892;7.936;2022-07-01T04:09:11;15.40;99.90
13682;DHT22;6913;49.892;7.936;2022-07-01T04:11:41;15.50;99.90
13682;DHT22;6913;49.892;7.936;2022-07-01T04:14:08;15.50;99.90
13682;DHT22;6913;49.892;7.936;2022-07-01T04:16:36;15.50;99.90
13682;DHT22;6913;49.892;7.936;2022-07-01T04:19:03;15.80;99.90
13682;DHT22;6913;49.892;7.936;2022-07-01T04:21:31;15.70;99.90
13682;DHT22;6913;49.892;7.936;2022-07-01T04:24:14;15.50;99.90
13682;DHT22;6913;49.892;7.936;2022-07-01T04:26:43;15.60;99.90
13682;DHT22;6913;49.892;7.936;2022-07-01T04:29:10;16.00;99.90
13682;DHT22;6913;49.892;7.936;2022-07-01T04:31:38;15.70;99.90
13682;DHT22;6913;49.892;7.936;2022-07-01T04:34:05;15.80;99.90
13682;DHT22;6913;49.892;7.936;2022-07-01T04:36:32;15.60;99.90
13682;DHT22;6913;49.892;7.936;2022-07-01T04:38:59;15.80;99.90
13682;DHT22;6913;49.892;7.936;2022-07-01T04:41:26;15.80;99.90
13682;DHT22;6913;49.892;7.936;2022-07-01T04:44:12;15.30;99.90
13682;DHT22;6913;49.892;7.936;2022-07-01T04:46:39;15.40;99.90
13682;DHT22;6913;49.892;7.936;2022-07-01T04:49:06;15.40;99.90
13682;DHT22;6913;49.892;7.936;2022-07-01T04:51:33;15.40;99.90
13682;DHT22;6913;49.892;7.936;2022-07-01T04:54:00;15.70;99.90
13682;DHT22;6913;49.892;7.936;2022-07-01T04:56:27;15.40;99.90
13682;DHT22;6913;49.892;7.936;2022-07-01T04:58:54;15.70;99.90
13682;DHT22;6913;49.892;7.936;2022-07-01T05:01:22;16.00;99.90
13682;DHT22;6913;49.892;7.936;2022-07-01T05:03:49;16.00;99.90
13682;DHT22;6913;49.892;7.936;2022-07-01T05:06:16;15.90;99.90
13682;DHT22;6913;49.892;7.936;2022-07-01T05:08:43;16.20;99.90
13682;DHT22;6913;49.892;7.936;2022-07-01T05:11:10;15.90;99.90
13682;DHT22;6913;49.892;7.936;2022-07-01T05:13:37;16.20;99.90
13682;DHT22;6913;49.892;7.936;2022-07-01T05:16:05;16.20;99.90
13682;DHT22;6913;49.892;7.936;2022-07-01T05:18:35;15.90;99.90
13682;DHT22;6913;49.892;7.936;2022-07-01T05:21:20;16.10;99.90
13682;DHT22;6913;49.892;7.936;2022-07-01T05:24:05;15.80;99.90
13682;DHT22;6913;49.892;7.936;2022-07-01T05:26:33;15.70;99.90
13682;DHT22;6913;49.892;7.936;2022-07-01T05:28:59;16.00;99.90
13682;DHT22;6913;49.892;7.936;2022-07-01T05:31:26;15.70;99.90
13682;DHT22;6913;49.892;7.936;2022-07-01T05:33:54;16.20;99.90
13682;DHT22;6913;49.892;7.936;2022-07-01T05:36:21;16.00;99.90
13682;DHT22;6913;49.892;7.936;2022-07-01T05:38:48;16.10;99.90
13682;DHT22;6913;49.892;7.936;2022-07-01T05:41:15;16.20;99.90
13682;DHT22;6913;49.892;7.936;2022-07-01T05:43:42;16.80;99.90
13682;DHT22;6913;49.892;7.936;2022-07-01T05:46:09;16.70;99.90
13682;DHT22;6913;49.892;7.936;2022-07-01T05:48:36;16.90;99.90
13682;DHT22;6913;49.892;7.936;2022-07-01T05:51:04;16.90;99.90
13682;DHT22;6913;49.892;7.936;2022-07-01T05:53:31;17.30;99.90
13682;DHT22;6913;49.892;7.936;2022-07-01T05:55:58;17.10;99.90
13682;DHT22;6913;49.892;7.936;2022-07-01T05:58:25;17.30;99.90
13682;DHT22;6913;49.892;7.936;2022-07-01T06:00:52;17.60;99.90
13682;DHT22;6913;49.892;7.936;2022-07-01T06:03:18;17.80;99.90
13682;DHT22;6913;49.892;7.936;2022-07-01T06:05:45;17.90;99.90
13682;DHT22;6913;49.892;7.936;2022-07-01T06:08:14;18.00;99.90
13682;DHT22;6913;49.892;7.936;2022-07-01T06:10:40;18.30;99.90
13682;DHT22;6913;49.892;7.936;2022-07-01T06:13:07;17.80;99.90
13682;DHT22;6913;49.892;7.936;2022-07-01T06:15:34;17.60;99.90
13682;DHT22;6913;49.892;7.936;2022-07-01T06:18:01;17.70;99.90
13682;DHT22;6913;49.892;7.936;2022-07-01T06:20:28;17.50;99.90
13682;DHT22;6913;49.892;7.936;2022-07-01T06:22:55;17.50;99.90
13682;DHT22;6913;49.892;7.936;2022-07-01T06:25:24;17.50;99.90
13682;DHT22;6913;49.892;7.936;2022-07-01T06:27:51;17.60;99.90
13682;DHT22;6913;49.892;7.936;2022-07-01T06:30:18;17.60;99.90
13682;DHT22;6913;49.892;7.936;2022-07-01T06:32:45;17.80;99.90
13682;DHT22;6913;49.892;7.936;2022-07-01T06:35:12;18.00;99.90
13682;DHT22;6913;49.892;7.936;2022-07-01T06:37:39;18.00;99.90
13682;DHT22;6913;49.892;7.936;2022-07-01T06:40:06;18.30;99.90
13682;DHT22;6913;49.892;7.936;2022-07-01T06:42:35;18.00;99.90
13682;DHT22;6913;49.892;7.936;2022-07-01T06:45:02;17.40;99.90
13682;DHT22;6913;49.892;7.936;2022-07-01T06:47:29;17.50;99.90
13682;DHT22;6913;49.892;7.936;2022-07-01T06:49:55;17.40;99.90
13682;DHT22;6913;49.892;7.936;2022-07-01T06:52:22;17.60;99.90
13682;DHT22;6913;49.892;7.936;2022-07-01T06:54:49;17.70;99.90
13682;DHT22;6913;49.892;7.936;2022-07-01T06:57:16;17.40;99.90
13682;DHT22;6913;49.892;7.936;2022-07-01T06:59:45;17.50;99.90
13682;DHT22;6913;49.892;7.936;2022-07-01T07:02:12;17.90;99.90
13682;DHT22;6913;49.892;7.936;2022-07-01T07:04:38;17.40;99.90
13682;DHT22;6913;49.892;7.936;2022-07-01T07:07:05;17.10;99.90
13682;DHT22;6913;49.892;7.936;2022-07-01T07:09:32;17.30;99.90
13682;DHT22;6913;49.892;7.936;2022-07-01T07:11:59;17.40;99.90
13682;DHT22;6913;49.892;7.936;2022-07-01T07:14:26;17.20;99.90
13682;DHT22;6913;49.892;7.936;2022-07-01T07:16:54;17.20;99.90
13682;DHT22;6913;49.892;7.936;2022-07-01T07:19:21;17.40;99.90
13682;DHT22;6913;49.892;7.936;2022-07-01T07:21:48;17.30;99.90
13682;DHT22;6913;49.892;7.936;2022-07-01T07:24:14;17.40;99.90
13682;DHT22;6913;49.892;7.936;2022-07-01T07:26:41;17.40;99.90
13682;DHT22;6913;49.892;7.936;2022-07-01T07:29:08;17.60;99.90
13682;DHT22;6913;49.892;7.936;2022-07-01T07:31:35;18.30;99.90
13682;DHT22;6913;49.892;7.936;2022-07-01T07:34:03;17.80;99.90
13682;DHT22;6913;49.892;7.936;2022-07-01T07:36:30;17.70;99.90
13682;DHT22;6913;49.892;7.936;2022-07-01T07:38:57;17.70;99.90
13682;DHT22;6913;49.892;7.936;2022-07-01T07:41:25;17.80;99.90
13682;DHT22;6913;49.892;7.936;2022-07-01T07:43:51;17.30;99.90
13682;DHT22;6913;49.892;7.936;2022-07-01T07:46:18;17.20;99.90
13682;DHT22;6913;49.892;7.936;2022-07-01T07:48:45;17.30;99.90
13682;DHT22;6913;49.892;7.936;2022-07-01T07:51:14;17.40;99.90
13682;DHT22;6913;49.892;7.936;2022-07-01T07:53:43;17.20;99.90
13682;DHT22;6913;49.892;7.936;2022-07-01T07:56:10;17.30;99.90
13682;DHT22;6913;49.892;7.936;2022-07-01T07:58:37;17.40;99.90
13682;DHT22;6913;49.892;7.936;2022-07-01T08:01:07;17.30;99.90
13682;DHT22;6913;49.892;7.936;2022-07-01T08:03:35;17.60;99.90
13682;DHT22;6913;49.892;7.936;2022-07-01T08:06:02;17.70;99.90
13682;DHT22;6913;49.892;7.936;2022-07-01T08:08:30;17.90;99.90
13682;DHT22;6913;49.892;7.936;2022-07-01T08:10:57;18.10;99.90
13682;DHT22;6913;49.892;7.936;2022-07-01T08:13:24;18.10;99.90
13682;DHT22;6913;49.892;7.936;2022-07-01T08:15:51;18.90;99.90
13682;DHT22;6913;49.892;7.936;2022-07-01T08:18:18;18.10;99.90
13682;DHT22;6913;49.892;7.936;2022-07-01T08:20:44;18.30;99.90
13682;DHT22;6913;49.892;7.936;2022-07-01T08:23:12;18.30;99.90
13682;DHT22;6913;49.892;7.936;2022-07-01T08:25:40;18.30;99.90
13682;DHT22;6913;49.892;7.936;2022-07-01T08:28:07;18.20;99.90
13682;DHT22;6913;49.892;7.936;2022-07-01T08:30:34;18.40;99.90
13682;DHT22;6913;49.892;7.936;2022-07-01T08:33:01;18.60;99.90
13682;DHT22;6913;49.892;7.936;2022-07-01T08:35:28;18.60;99.90
13682;DHT22;6913;49.892;7.936;2022-07-01T08:37:55;18.60;99.90
13682;DHT22;6913;49.892;7.936;2022-07-01T08:40:24;18.80;99.90
13682;DHT22;6913;49.892;7.936;2022-07-01T08:42:56;18.90;99.90
13682;DHT22;6913;49.892;7.936;2022-07-01T08:45:25;18.90;99.90
13682;DHT22;6913;49.892;7.936;2022-07-01T08:47:55;18.90;99.90
13682;DHT22;6913;49.892;7.936;2022-07-01T08:50:23;19.00;99.90
13682;DHT22;6913;49.892;7.936;2022-07-01T08:52:51;19.20;99.90
13682;DHT22;6913;49.892;7.936;2022-07-01T08:55:19;19.00;99.90
13682;DHT22;6913;49.892;7.936;2022-07-01T08:57:46;19.10;99.90
13682;DHT22;6913;49.892;7.936;2022-07-01T09:00:15;19.50;99.90
13682;DHT22;6913;49.892;7.936;2022-07-01T09:02:50;19.40;99.90
13682;DHT22;6913;49.892;7.936;2022-07-01T09:05:17;19.70;99.90
13682;DHT22;6913;49.892;7.936;2022-07-01T09:07:44;19.90;99.90
13682;DHT22;6913;49.892;7.936;2022-07-01T09:10:12;19.80;99.90
13682;DHT22;6913;49.892;7.936;2022-07-01T09:12:40;20.00;99.90
13682;DHT22;6913;49.892;7.936;2022-07-01T09:15:20;19.90;99.90
13682;DHT22;6913;49.892;7.936;2022-07-01T09:17:47;19.90;99.90
13682;DHT22;6913;49.892;7.936;2022-07-01T09:20:28;20.00;99.90
13682;DHT22;6913;49.892;7.936;2022-07-01T09:23:03;20.40;99.90
13682;DHT22;6913;49.892;7.936;2022-07-01T09:25:32;20.50;99.90
13682;DHT22;6913;49.892;7.936;2022-07-01T09:28:04;19.90;99.90
13682;DHT22;6913;49.892;7.936;2022-07-01T09:30:32;20.70;99.90
13682;DHT22;6913;49.892;7.936;2022-07-01T09:33:11;21.00;99.90
13682;DHT22;6913;49.892;7.936;2022-07-01T09:35:38;20.50;99.90
13682;DHT22;6913;49.892;7.936;2022-07-01T09:38:06;21.10;99.90
13682;DHT22;6913;49.892;7.936;2022-07-01T09:40:47;22.00;99.90
13682;DHT22;6913;49.892;7.936;2022-07-01T09:43:17;22.20;99.90
13682;DHT22;6913;49.892;7.936;2022-07-01T09:45:56;22.50;99.90
13682;DHT22;6913;49.892;7.936;2022-07-01T09:48:25;22.70;99.90
13682;DHT22;6913;49.892;7.936;2022-07-01T09:50:53;23.40;99.90
13682;DHT22;6913;49.892;7.936;2022-07-01T09:53:20;23.00;99.90
13682;DHT22;6913;49.892;7.936;2022-07-01T09:55:47;22.90;99.90
13682;DHT22;6913;49.892;7.936;2022-07-01T09:58:14;23.00;99.90
13682;DHT22;6913;49.892;7.936;2022-07-01T10:00:43;22.80;99.90
13682;DHT22;6913;49.892;7.936;2022-07-01T10:03:11;23.00;99.90
13682;DHT22;6913;49.892;7.936;2022-07-01T10:05:44;23.30;99.90
13682;DHT22;6913;49.892;7.936;2022-07-01T10:08:29;23.50;99.90
13682;DHT22;6913;49.892;7.936;2022-07-01T10:11:15;23.30;99.90
13682;DHT22;6913;49.892;7.936;2022-07-01T10:13:45;23.30;99.90
13682;DHT22;6913;49.892;7.936;2022-07-01T10:16:13;24.20;99.90
13682;DHT22;6913;49.892;7.936;2022-07-01T10:18:42;24.80;99.90
13682;DHT22;6913;49.892;7.936;2022-07-01T10:21:09;25.10;99.90
13682;DHT22;6913;49.892;7.936;2022-07-01T10:23:39;25.10;99.90
13682;DHT22;6913;49.892;7.936;2022-07-01T10:26:07;24.90;99.90
13682;DHT22;6913;49.892;7.936;2022-07-01T10:28:43;24.40;99.90
13682;DHT22;6913;49.892;7.936;2022-07-01T10:31:13;24.00;99.90
13682;DHT22;6913;49.892;7.936;2022-07-01T10:33:47;23.40;99.90
13682;DHT22;6913;49.892;7.936;2022-07-01T10:36:18;23.20;99.90
13682;DHT22;6913;49.892;7.936;2022-07-01T10:39:13;23.40;99.90
13682;DHT22;6913;49.892;7.936;2022-07-01T10:41:55;23.60;99.90
13682;DHT22;6913;49.892;7.936;2022-07-01T10:44:23;24.50;99.90
13682;DHT22;6913;49.892;7.936;2022-07-01T10:46:51;24.80;99.90
13682;DHT22;6913;49.892;7.936;2022-07-01T10:52:29;23.70;99.90
13682;DHT22;6913;49.892;7.936;2022-07-01T10:54:57;23.70;99.90
13682;DHT22;6913;49.892;7.936;2022-07-01T10:57:28;23.70;99.90
13682;DHT22;6913;49.892;7.936;2022-07-01T11:00:29;23.70;99.90
13682;DHT22;6913;49.892;7.936;2022-07-01T11:03:09;23.30;99.90
13682;DHT22;6913;49.892;7.936;2022-07-01T11:05:36;22.90;99.90
13682;DHT22;6913;49.892;7.936;2022-07-01T11:08:06;22.80;99.90
13682;DHT22;6913;49.892;7.936;2022-07-01T11:10:34;22.80;99.90
13682;DHT22;6913;49.892;7.936;2022-07-01T11:13:02;23.50;99.90
13682;DHT22;6913;49.892;7.936;2022-07-01T11:15:29;24.10;99.90
13682;DHT22;6913;49.892;7.936;2022-07-01T11:17:58;24.30;99.90
13682;DHT22;6913;49.892;7.936;2022-07-01T11:20:26;23.70;99.90
13682;DHT22;6913;49.892;7.936;2022-07-01T11:22:53;23.50;99.90
13682;DHT22;6913;49.892;7.936;2022-07-01T11:25:21;23.40;99.90
13682;DHT22;6913;49.892;7.936;2022-07-01T11:27:50;23.50;99.90
13682;DHT22;6913;49.892;7.936;2022-07-01T11:30:19;23.50;99.90
13682;DHT22;6913;49.892;7.936;2022-07-01T11:32:47;24.10;99.90
13682;DHT22;6913;49.892;7.936;2022-07-01T11:35:15;25.00;99.90
13682;DHT22;6913;49.892;7.936;2022-07-01T11:38:08;25.00;99.90
13682;DHT22;6913;49.892;7.936;2022-07-01T11:40:54;24.50;99.90
13682;DHT22;6913;49.892;7.936;2022-07-01T11:43:23;24.60;99.90
13682;DHT22;6913;49.892;7.936;2022-07-01T11:45:50;23.70;99.90
13682;DHT22;6913;49.892;7.936;2022-07-01T11:48:34;23.90;99.90
13682;DHT22;6913;49.892;7.936;2022-07-01T11:51:06;24.10;99.90
13682;DHT22;6913;49.892;7.936;2022-07-01T11:53:33;24.00;99.90
13682;DHT22;6913;49.892;7.936;2022-07-01T11:56:02;24.30;99.90
13682;DHT22;6913;49.892;7.936;2022-07-01T11:58:46;24.50;99.90
13682;DHT22;6913;49.892;7.936;2022-07-01T12:01:27;24.80;99.90
13682;DHT22;6913;49.892;7.936;2022-07-01T12:03:56;24.90;99.90
13682;DHT22;6913;49.892;7.936;2022-07-01T12:06:24;24.60;99.90
13682;DHT22;6913;49.892;7.936;2022-07-01T12:08:52;24.70;99.90
13682;DHT22;6913;49.892;7.936;2022-07-01T12:11:25;24.70;99.90
13682;DHT22;6913;49.892;7.936;2022-07-01T12:13:52;24.90;99.90
13682;DHT22;6913;49.892;7.936;2022-07-01T12:16:20;24.90;99.90
13682;DHT22;6913;49.892;7.936;2022-07-01T12:18:55;24.10;99.90
13682;DHT22;6913;49.892;7.936;2022-07-01T12:21:23;23.90;99.90
13682;DHT22;6913;49.892;7.936;2022-07-01T12:24:07;23.70;99.90
13682;DHT22;6913;49.892;7.936;2022-07-01T12:26:46;23.50;99.90
13682;DHT22;6913;49.892;7.936;2022-07-01T12:29:13;23.50;99.90
13682;DHT22;6913;49.892;7.936;2022-07-01T12:31:40;23.30;99.90
13682;DHT22;6913;49.892;7.936;2022-07-01T12:34:07;23.10;99.90
13682;DHT22;6913;49.892;7.936;2022-07-01T12:36:34;22.80;99.90
13682;DHT22;6913;49.892;7.936;2022-07-01T12:39:03;22.20;99.90
13682;DHT22;6913;49.892;7.936;2022-07-01T12:41:32;22.20;99.90
13682;DHT22;6913;49.892;7.936;2022-07-01T12:44:01;22.10;99.90
13682;DHT22;6913;49.892;7.936;2022-07-01T12:46:32;22.20;99.90
13682;DHT22;6913;49.892;7.936;2022-07-01T12:48:59;21.70;99.90
13682;DHT22;6913;49.892;7.936;2022-07-01T12:51:30;21.80;99.90
13682;DHT22;6913;49.892;7.936;2022-07-01T12:53:57;22.10;99.90
13682;DHT22;6913;49.892;7.936;2022-07-01T12:56:25;22.20;99.90
13682;DHT22;6913;49.892;7.936;2022-07-01T12:58:52;22.10;99.90
13682;DHT22;6913;49.892;7.936;2022-07-01T13:01:21;22.50;99.90
13682;DHT22;6913;49.892;7.936;2022-07-01T13:03:48;22.40;99.90
13682;DHT22;6913;49.892;7.936;2022-07-01T13:06:15;22.90;99.90
13682;DHT22;6913;49.892;7.936;2022-07-01T13:08:42;23.10;99.90
13682;DHT22;6913;49.892;7.936;2022-07-01T13:11:09;23.20;99.90
13682;DHT22;6913;49.892;7.936;2022-07-01T13:13:35;23.80;99.90
13682;DHT22;6913;49.892;7.936;2022-07-01T13:16:03;23.90;99.90
13682;DHT22;6913;49.892;7.936;2022-07-01T13:18:31;24.10;99.90
13682;DHT22;6913;49.892;7.936;2022-07-01T13:20:58;24.20;99.90
13682;DHT22;6913;49.892;7.936;2022-07-01T13:23:24;24.00;99.90
13682;DHT22;6913;49.892;7.936;2022-07-01T13:25:51;23.70;99.90
13682;DHT22;6913;49.892;7.936;2022-07-01T13:28:18;23.30;99.90
13682;DHT22;6913;49.892;7.936;2022-07-01T13:30:45;23.30;99.90
13682;DHT22;6913;49.892;7.936;2022-07-01T13:33:12;23.10;99.90
13682;DHT22;6913;49.892;7.936;2022-07-01T13:35:40;23.10;99.90
13682;DHT22;6913;49.892;7.936;2022-07-01T13:38:07;23.70;99.90
13682;DHT22;6913;49.892;7.936;2022-07-01T13:40:34;24.00;99.90
13682;DHT22;6913;49.892;7.936;2022-07-01T13:43:00;24.10;99.90
13682;DHT22;6913;49.892;7.936;2022-07-01T13:45:27;23.80;99.90
13682;DHT22;6913;49.892;7.936;2022-07-01T13:47:54;23.70;99.90
13682;DHT22;6913;49.892;7.936;2022-07-01T13:50:21;22.90;99.90
13682;DHT22;6913;49.892;7.936;2022-07-01T13:52:49;23.00;99.90
13682;DHT22;6913;49.892;7.936;2022-07-01T13:55:16;23.40;99.90
13682;DHT22;6913;49.892;7.936;2022-07-01T13:57:44;23.20;99.90
13682;DHT22;6913;49.892;7.936;2022-07-01T14:00:12;23.50;99.80
13682;DHT22;6913;49.892;7.936;2022-07-01T14:02:39;24.20;99.90
13682;DHT22;6913;49.892;7.936;2022-07-01T14:05:06;24.30;97.90
13682;DHT22;6913;49.892;7.936;2022-07-01T14:07:33;24.20;99.90
13682;DHT22;6913;49.892;7.936;2022-07-01T14:10:02;25.00;99.10
13682;DHT22;6913;49.892;7.936;2022-07-01T14:12:29;25.00;98.80
13682;DHT22;6913;49.892;7.936;2022-07-01T14:14:56;25.00;98.50
13682;DHT22;6913;49.892;7.936;2022-07-01T14:17:24;25.00;96.80
13682;DHT22;6913;49.892;7.936;2022-07-01T14:19:52;25.00;96.50
13682;DHT22;6913;49.892;7.936;2022-07-01T14:22:19;25.20;96.10
13682;DHT22;6913;49.892;7.936;2022-07-01T14:24:46;24.80;95.50
13682;DHT22;6913;49.892;7.936;2022-07-01T14:27:14;24.50;95.80
13682;DHT22;6913;49.892;7.936;2022-07-01T14:29:41;24.90;96.00
13682;DHT22;6913;49.892;7.936;2022-07-01T14:32:08;24.80;97.10
13682;DHT22;6913;49.892;7.936;2022-07-01T14:34:35;25.10;96.50
13682;DHT22;6913;49.892;7.936;2022-07-01T14:37:02;24.80;95.20
13682;DHT22;6913;49.892;7.936;2022-07-01T14:39:28;24.10;94.70
13682;DHT22;6913;49.892;7.936;2022-07-01T14:41:55;23.90;97.10
13682;DHT22;6913;49.892;7.936;2022-07-01T14:44:24;24.10;97.50
13682;DHT22;6913;49.892;7.936;2022-07-01T14:46:51;24.30;95.90
13682;DHT22;6913;49.892;7.936;2022-07-01T14:49:17;24.60;96.70
13682;DHT22;6913;49.892;7.936;2022-07-01T14:51:44;24.70;96.10
13682;DHT22;6913;49.892;7.936;2022-07-01T14:54:11;25.00;97.50
13682;DHT22;6913;49.892;7.936;2022-07-01T14:56:38;25.60;95.40
13682;DHT22;6913;49.892;7.936;2022-07-01T14:59:05;25.50;94.30
13682;DHT22;6913;49.892;7.936;2022-07-01T15:01:34;25.10;93.80
13682;DHT22;6913;49.892;7.936;2022-07-01T15:04:01;25.70;94.00
13682;DHT22;6913;49.892;7.936;2022-07-01T15:06:27;26.30;93.00
13682;DHT22;6913;49.892;7.936;2022-07-01T15:08:55;26.00;92.70
13682;DHT22;6913;49.892;7.936;2022-07-01T15:11:21;25.30;92.90
13682;DHT22;6913;49.892;7.936;2022-07-01T15:13:48;25.40;94.00
13682;DHT22;6913;49.892;7.936;2022-07-01T15:16:15;25.80;91.20
13682;DHT22;6913;49.892;7.936;2022-07-01T15:18:43;25.90;93.60
13682;DHT22;6913;49.892;7.936;2022-07-01T15:21:10;26.30;91.00
13682;DHT22;6913;49.892;7.936;2022-07-01T15:23:37;26.00;88.80
13682;DHT22;6913;49.892;7.936;2022-07-01T15:26:04;26.00;90.30
13682;DHT22;6913;49.892;7.936;2022-07-01T15:28:31;26.10;88.20
13682;DHT22;6913;49.892;7.936;2022-07-01T15:30:58;26.10;88.60
13682;DHT22;6913;49.892;7.936;2022-07-01T15:33:25;25.80;88.80
13682;DHT22;6913;49.892;7.936;2022-07-01T15:35:53;25.80;88.70
13682;DHT22;6913;49.892;7.936;2022-07-01T15:38:20;25.20;90.00
13682;DHT22;6913;49.892;7.936;2022-07-01T15:40:47;25.10;90.50
13682;DHT22;6913;49.892;7.936;2022-07-01T15:43:13;25.20;91.20
13682;DHT22;6913;49.892;7.936;2022-07-01T15:45:41;25.00;91.60
13682;DHT22;6913;49.892;7.936;2022-07-01T15:48:08;24.90;91.40
13682;DHT22;6913;49.892;7.936;2022-07-01T15:50:40;25.00;91.50
13682;DHT22;6913;49.892;7.936;2022-07-01T15:53:09;24.90;90.50
13682;DHT22;6913;49.892;7.936;2022-07-01T15:55:36;24.80;91.10